Time,TemperatureF,DewpointF,PressureIn,WindDirection,WindDirectionDegrees,WindSpeedMPH,WindSpeedGustMPH,Humidity,HourlyPrecipIn,Conditions,Clouds,dailyrainin,SoftwareType,DateUTC
2013-07-24 00:05:00,69.6,63.0,29.70,NE,35,0.0,1.0,79,0.00,,,0.00,weatherlink.com 1.10,2013-07-24 04:05:00,
2013-07-24 00:20:00,69.2,62.0,29.70,NE,36,0.0,0.0,79,0.00,,,0.00,weatherlink.com 1.10,2013-07-24 04:20:00,
2013-07-24 00:35:00,69.3,63.0,29.70,NE,53,0.0,1.0,80,0.00,,,0.00,weatherlink.com 1.10,2013-07-24 04:35:00,
2013-07-24 00:50:00,70.0,63.0,29.69,North,356,0.0,1.0,78,0.00,,,0.00,weatherlink.com 1.10,2013-07-24 04:50:00,
2013-07-24 01:05:00,69.5,63.0,29.67,North,1,0.0,1.0,81,0.00,,,0.00,weatherlink.com 1.10,2013-07-24 05:05:00,
2013-07-24 01:20:00,68.9,63.0,29.67,NNE,12,0.0,1.0,81,0.00,,,0.00,weatherlink.com 1.10,2013-07-24 05:20:00,
2013-07-24 01:35:00,69.0,63.0,29.67,SSW,201,0.0,1.0,80,0.00,,,0.00,weatherlink.com 1.10,2013-07-24 05:35:00,
2013-07-24 01:50:00,69.2,63.0,29.66,South,179,0.0,1.0,80,0.00,,,0.00,weatherlink.com 1.10,2013-07-24 05:50:00,
2013-07-24 02:05:00,68.5,63.0,29.66,South,178,0.0,1.0,82,0.00,,,0.00,weatherlink.com 1.10,2013-07-24 06:05:00,
2013-07-24 02:20:00,68.1,62.0,29.65,SE,132,0.0,1.0,82,0.00,,,0.00,weatherlink.com 1.10,2013-07-24 06:20:00,
2013-07-24 02:36:00,68.5,63.0,29.66,SE,132,0.0,0.0,81,0.00,,,0.00,weatherlink.com 1.10,2013-07-24 06:36:00,
2013-07-24 02:51:00,67.9,63.0,29.65,South,172,0.0,1.0,84,0.00,,,0.00,weatherlink.com 1.10,2013-07-24 06:51:00,
2013-07-24 03:06:00,68.0,63.0,29.65,SW,228,0.0,3.0,84,0.00,,,0.00,weatherlink.com 1.10,2013-07-24 07:06:00,
2013-07-24 03:21:00,67.5,63.0,29.64,ESE,120,0.0,1.0,84,0.00,,,0.00,weatherlink.com 1.10,2013-07-24 07:21:00,
2013-07-24 03:36:00,67.0,62.0,29.65,SSW,207,0.0,1.0,84,0.00,,,0.00,weatherlink.com 1.10,2013-07-24 07:36:00,
2013-07-24 03:51:00,66.9,62.0,29.64,SE,141,0.0,1.0,85,0.00,,,0.00,weatherlink.com 1.10,2013-07-24 07:51:00,
2013-07-24 04:06:00,66.9,62.0,29.64,SE,141,0.0,1.0,85,0.00,,,0.00,weatherlink.com 1.10,2013-07-24 08:06:00,
2013-07-24 04:21:00,66.8,63.0,29.64,SE,141,0.0,1.0,86,0.00,,,0.00,weatherlink.com 1.10,2013-07-24 08:21:00,
2013-07-24 04:36:00,66.9,63.0,29.64,SSW,210,0.0,1.0,86,0.00,,,0.00,weatherlink.com 1.10,2013-07-24 08:36:00,
2013-07-24 04:51:00,66.4,63.0,29.65,SSE,166,0.0,1.0,88,0.00,,,0.00,weatherlink.com 1.10,2013-07-24 08:51:00,
2013-07-24 05:21:00,66.2,63.0,29.66,SSE,163,0.0,1.0,88,0.00,,,0.00,weatherlink.com 1.10,2013-07-24 09:21:00,
2013-07-24 06:51:00,65.6,62.0,29.67,ENE,71,0.0,1.0,88,0.00,,,0.00,weatherlink.com 1.10,2013-07-24 10:51:00,
2013-07-24 07:06:00,66.0,62.0,29.68,ENE,71,0.0,0.0,88,0.00,,,0.00,weatherlink.com 1.10,2013-07-24 11:06:00,
2013-07-24 07:21:00,66.4,63.0,29.68,ENE,71,0.0,0.0,87,0.00,,,0.00,weatherlink.com 1.10,2013-07-24 11:21:00,
2013-07-24 07:51:00,67.4,63.0,29.70,SE,131,0.0,4.0,86,0.00,,,0.00,weatherlink.com 1.10,2013-07-24 11:51:00,
2013-07-24 08:21:00,68.0,63.0,29.68,South,177,0.0,1.0,85,0.00,,,0.00,weatherlink.com 1.10,2013-07-24 12:21:00,
2013-07-24 08:36:00,68.3,64.0,29.71,SW,214,1.0,3.0,86,0.00,,,0.00,weatherlink.com 1.10,2013-07-24 12:36:00,
2013-07-24 09:06:00,68.6,65.0,29.71,West,259,0.0,1.0,89,0.00,,,0.00,weatherlink.com 1.10,2013-07-24 13:06:00,
2013-07-24 09:21:00,68.3,65.0,29.72,SW,227,0.0,3.0,89,0.00,,,0.00,weatherlink.com 1.10,2013-07-24 13:21:00,
2013-07-24 09:36:00,68.4,65.0,29.71,West,262,1.0,1.0,89,0.00,,,0.00,weatherlink.com 1.10,2013-07-24 13:36:00,
2013-07-24 09:51:00,68.8,65.0,29.72,SSW,203,1.0,1.0,86,0.00,,,0.00,weatherlink.com 1.10,2013-07-24 13:51:00,
2013-07-24 10:06:00,68.3,64.0,29.72,SW,226,2.0,4.0,86,0.00,,,0.00,weatherlink.com 1.10,2013-07-24 14:06:00,
2013-07-24 10:22:00,68.2,65.0,29.73,SSW,205,0.0,1.0,88,0.00,,,0.00,weatherlink.com 1.10,2013-07-24 14:22:00,
2013-07-24 10:36:00,68.7,65.0,29.73,SSW,192,2.0,2.0,88,0.00,,,0.00,weatherlink.com 1.10,2013-07-24 14:36:00,
2013-07-24 10:51:00,69.0,65.0,29.74,SW,235,1.0,2.0,87,0.00,,,0.00,weatherlink.com 1.10,2013-07-24 14:51:00,
2013-07-24 11:21:00,70.6,66.0,29.74,WSW,238,0.0,2.0,84,0.00,,,0.00,weatherlink.com 1.10,2013-07-24 15:21:00,
2013-07-24 11:36:00,71.0,64.0,29.74,WNW,288,0.0,2.0,79,0.00,,,0.00,weatherlink.com 1.10,2013-07-24 15:36:00,
2013-07-24 11:51:00,70.6,65.0,29.75,South,169,0.0,4.0,82,0.00,,,0.00,weatherlink.com 1.10,2013-07-24 15:51:00,
2013-07-24 12:07:00,70.7,66.0,29.74,SW,236,0.0,1.0,84,0.00,,,0.00,weatherlink.com 1.10,2013-07-24 16:07:00,
2013-07-24 12:22:00,70.6,65.0,29.75,WNW,283,1.0,2.0,81,0.00,,,0.00,weatherlink.com 1.10,2013-07-24 16:22:00,
2013-07-24 12:37:00,70.7,66.0,29.75,SW,233,2.0,2.0,84,0.00,,,0.00,weatherlink.com 1.10,2013-07-24 16:37:00,
2013-07-24 12:52:00,70.4,64.0,29.75,SW,226,0.0,1.0,81,0.00,,,0.00,weatherlink.com 1.10,2013-07-24 16:52:00,
2013-07-24 13:07:00,71.5,65.0,29.75,West,259,0.0,2.0,81,0.00,,,0.00,weatherlink.com 1.10,2013-07-24 17:07:00,
2013-07-24 13:22:00,72.7,66.0,29.74,NW,316,0.0,2.0,78,0.00,,,0.00,weatherlink.com 1.10,2013-07-24 17:22:00,
2013-07-24 13:37:00,72.7,66.0,29.74,WNW,288,0.0,2.0,80,0.00,,,0.00,weatherlink.com 1.10,2013-07-24 17:37:00,
2013-07-24 13:53:00,72.7,66.0,29.74,WNW,301,1.0,3.0,78,0.00,,,0.00,weatherlink.com 1.10,2013-07-24 17:53:00,
2013-07-24 14:07:00,71.2,66.0,29.73,South,184,0.0,4.0,82,0.00,,,0.00,weatherlink.com 1.10,2013-07-24 18:07:00,
2013-07-24 14:22:00,70.6,65.0,29.74,West,264,1.0,3.0,83,0.00,,,0.00,weatherlink.com 1.10,2013-07-24 18:22:00,
2013-07-24 14:37:00,72.8,68.0,29.73,WSW,243,2.0,3.0,84,0.00,,,0.00,weatherlink.com 1.10,2013-07-24 18:37:00,
2013-07-24 14:52:00,75.4,66.0,29.74,SSW,204,0.0,3.0,72,0.00,,,0.00,weatherlink.com 1.10,2013-07-24 18:52:00,
2013-07-24 15:07:00,75.3,68.0,29.73,SW,232,2.0,2.0,78,0.00,,,0.00,weatherlink.com 1.10,2013-07-24 19:07:00,
2013-07-24 15:37:00,74.9,66.0,29.74,NW,314,1.0,4.0,74,0.00,,,0.00,weatherlink.com 1.10,2013-07-24 19:37:00,
2013-07-24 15:52:00,75.1,67.0,29.74,West,280,2.0,4.0,76,0.00,,,0.00,weatherlink.com 1.10,2013-07-24 19:52:00,
2013-07-24 16:07:00,75.6,66.0,29.74,SSW,200,1.0,3.0,73,0.00,,,0.00,weatherlink.com 1.10,2013-07-24 20:07:00,
2013-07-24 16:37:00,74.5,66.0,29.73,WSW,256,3.0,5.0,74,0.00,,,0.00,weatherlink.com 1.10,2013-07-24 20:37:00,
2013-07-24 16:52:00,74.1,66.0,29.73,SW,226,2.0,3.0,75,0.00,,,0.00,weatherlink.com 1.10,2013-07-24 20:52:00,
2013-07-24 17:07:00,73.6,66.0,29.74,WSW,249,3.0,3.0,78,0.00,,,0.00,weatherlink.com 1.10,2013-07-24 21:07:00,
2013-07-24 17:22:00,74.3,66.0,29.73,WSW,252,1.0,4.0,74,0.00,,,0.00,weatherlink.com 1.10,2013-07-24 21:22:00,
2013-07-24 17:37:00,74.5,65.0,29.73,SSW,200,2.0,4.0,73,0.00,,,0.00,weatherlink.com 1.10,2013-07-24 21:37:00,
2013-07-24 17:52:00,73.9,65.0,29.73,SW,224,2.0,4.0,73,0.00,,,0.00,weatherlink.com 1.10,2013-07-24 21:52:00,
2013-07-24 18:07:00,73.1,64.0,29.74,South,181,0.0,3.0,74,0.00,,,0.00,weatherlink.com 1.10,2013-07-24 22:07:00,
2013-07-24 18:22:00,72.0,64.0,29.74,SW,226,0.0,3.0,76,0.00,,,0.00,weatherlink.com 1.10,2013-07-24 22:22:00,
2013-07-24 18:37:00,70.6,63.0,29.75,WSW,246,0.0,2.0,77,0.00,,,0.00,weatherlink.com 1.10,2013-07-24 22:37:00,
2013-07-24 18:52:00,69.8,63.0,29.75,SW,232,1.0,2.0,79,0.00,,,0.00,weatherlink.com 1.10,2013-07-24 22:52:00,
2013-07-24 19:07:00,69.4,63.0,29.75,SW,222,1.0,5.0,79,0.00,,,0.00,weatherlink.com 1.10,2013-07-24 23:07:00,
2013-07-24 19:22:00,67.9,62.0,29.75,SW,229,1.0,4.0,80,0.00,,,0.00,weatherlink.com 1.10,2013-07-24 23:22:00,
2013-07-24 19:37:00,67.2,63.0,29.77,South,179,1.0,2.0,85,0.00,,,0.00,weatherlink.com 1.10,2013-07-24 23:37:00,
2013-07-24 19:52:00,66.4,61.0,29.77,SW,228,0.0,3.0,83,0.00,,,0.00,weatherlink.com 1.10,2013-07-24 23:52:00,
2013-07-24 20:07:00,65.6,60.0,29.78,South,180,5.0,5.0,82,0.00,,,0.00,weatherlink.com 1.10,2013-07-25 00:07:00,
2013-07-24 20:22:00,65.1,60.0,29.79,SW,218,0.0,4.0,84,0.00,,,0.00,weatherlink.com 1.10,2013-07-25 00:22:00,
2013-07-24 20:37:00,64.6,59.0,29.80,SSW,211,0.0,3.0,83,0.00,,,0.00,weatherlink.com 1.10,2013-07-25 00:37:00,
2013-07-24 20:52:00,64.1,59.0,29.80,SW,221,0.0,4.0,84,0.00,,,0.00,weatherlink.com 1.10,2013-07-25 00:52:00,
2013-07-24 21:07:00,63.4,59.0,29.80,WSW,239,1.0,1.0,85,0.00,,,0.00,weatherlink.com 1.10,2013-07-25 01:07:00,
2013-07-24 21:22:00,63.1,58.0,29.82,SSW,205,0.0,2.0,84,0.00,,,0.00,weatherlink.com 1.10,2013-07-25 01:22:00,
2013-07-24 21:37:00,63.2,58.0,29.82,SSW,193,0.0,3.0,82,0.00,,,0.00,weatherlink.com 1.10,2013-07-25 01:37:00,
2013-07-24 21:52:00,63.1,57.0,29.83,SSW,205,0.0,2.0,80,0.00,,,0.00,weatherlink.com 1.10,2013-07-25 01:52:00,
2013-07-24 22:07:00,63.0,57.0,29.84,South,191,0.0,3.0,80,0.00,,,0.00,weatherlink.com 1.10,2013-07-25 02:07:00,
2013-07-24 22:23:00,62.9,57.0,29.84,South,169,1.0,4.0,80,0.00,,,0.00,weatherlink.com 1.10,2013-07-25 02:23:00,
2013-07-24 22:38:00,62.8,57.0,29.84,SSW,203,0.0,1.0,82,0.00,,,0.00,weatherlink.com 1.10,2013-07-25 02:38:00,
2013-07-24 22:53:00,62.7,57.0,29.84,SSW,210,0.0,4.0,81,0.00,,,0.00,weatherlink.com 1.10,2013-07-25 02:53:00,
2013-07-24 23:08:00,62.5,57.0,29.85,SW,215,0.0,2.0,81,0.00,,,0.00,weatherlink.com 1.10,2013-07-25 03:08:00,
2013-07-24 23:38:00,62.0,56.0,29.85,SW,222,0.0,1.0,82,0.00,,,0.00,weatherlink.com 1.10,2013-07-25 03:38:00,
2013-07-24 23:53:00,61.7,56.0,29.85,WSW,256,0.0,2.0,81,0.00,,,0.00,weatherlink.com 1.10,2013-07-25 03:53:00,